createdAt,value
2023-01-23T00:00:12.694Z,92350.06
2023-01-23T00:02:44.771Z,92348.81
2023-01-23T00:05:16.862Z,92360.50
2023-01-23T00:07:48.938Z,92354.44
2023-01-23T00:10:21.386Z,92344.94
2023-01-23T00:12:53.839Z,92345.56
2023-01-23T00:15:26.884Z,92342.97
2023-01-23T00:17:58.977Z,92347.09
2023-01-23T00:20:31.089Z,92346.25
2023-01-23T00:23:03.237Z,92344.94
2023-01-23T00:25:35.579Z,92346.19
2023-01-23T00:28:07.670Z,92337.59
2023-01-23T00:30:40.466Z,92341.88
2023-01-23T00:33:12.791Z,92355.97
2023-01-23T00:35:44.853Z,92354.84
2023-01-23T00:38:16.974Z,92359.06
2023-01-23T00:40:51.245Z,92361.41
2023-01-23T00:43:32.297Z,92362.44
2023-01-23T00:46:05.202Z,92366.34
2023-01-23T00:48:38.145Z,92378.41
2023-01-23T00:51:10.279Z,92377.38
2023-01-23T00:53:42.374Z,92372.16
2023-01-23T00:56:14.791Z,92371.50
2023-01-23T00:58:46.881Z,92367.00
2023-01-23T01:01:22.003Z,92373.34
2023-01-23T01:03:54.506Z,92374.06
2023-01-23T01:06:28.167Z,92367.19
2023-01-23T01:09:02.657Z,92360.81
2023-01-23T01:11:34.808Z,92360.91
2023-01-23T01:14:06.871Z,92371.38
2023-01-23T01:16:44.441Z,92369.88
2023-01-23T01:19:17.266Z,92386.75
2023-01-23T01:21:49.620Z,92384.06
2023-01-23T01:24:22.640Z,92381.38
2023-01-23T01:26:54.722Z,92394.56
2023-01-23T01:29:28.255Z,92391.84
2023-01-23T01:32:01.641Z,92396.50
2023-01-23T01:34:33.879Z,92396.38
2023-01-23T01:37:05.980Z,92399.84
2023-01-23T01:39:38.072Z,92401.72
2023-01-23T01:42:10.161Z,92394.00
2023-01-23T01:44:53.171Z,92386.47
2023-01-23T01:47:26.290Z,92395.41
2023-01-23T01:50:02.125Z,92391.38
2023-01-23T01:52:34.268Z,92391.16
2023-01-23T01:55:06.977Z,92382.25
2023-01-23T01:57:42.288Z,92388.56
2023-01-23T02:00:15.958Z,92373.84
2023-01-23T02:02:52.155Z,92393.72
2023-01-23T02:05:26.113Z,92391.25
2023-01-23T02:08:00.928Z,92405.97
2023-01-23T02:10:34.236Z,92386.78
2023-01-23T02:13:19.107Z,92378.91
2023-01-23T02:15:51.871Z,92375.63
2023-01-23T02:18:26.232Z,92376.44
2023-01-23T02:21:00.898Z,92389.81
2023-01-23T02:23:37.194Z,92384.25
2023-01-23T02:26:12.410Z,92381.28
2023-01-23T02:28:45.500Z,92383.50
2023-01-23T02:31:20.307Z,92387.66
2023-01-23T02:33:53.510Z,92374.16
2023-01-23T02:36:27.286Z,92369.56
2023-01-23T02:39:03.582Z,92376.72
2023-01-23T02:41:37.728Z,92378.06
2023-01-23T02:44:12.914Z,92372.81
2023-01-23T02:46:45.310Z,92376.84
2023-01-23T02:49:17.573Z,92383.72
2023-01-23T02:51:50.339Z,92379.44
2023-01-23T02:54:22.691Z,92381.88
2023-01-23T02:56:56.545Z,92378.13
2023-01-23T02:59:47.863Z,92373.56
2023-01-23T03:02:20.167Z,92381.25
2023-01-23T03:04:53.503Z,92379.53
2023-01-23T03:07:25.615Z,92388.91
2023-01-23T03:09:57.673Z,92386.44
2023-01-23T03:12:30.416Z,92386.97
2023-01-23T03:15:05.425Z,92394.84
2023-01-23T03:17:38.574Z,92383.63
2023-01-23T03:20:11.106Z,92382.44
2023-01-23T03:22:44.093Z,92383.09
2023-01-23T03:25:16.184Z,92380.75
2023-01-23T03:27:49.186Z,92378.09
2023-01-23T03:30:21.439Z,92366.41
2023-01-23T03:32:53.639Z,92367.50
2023-01-23T03:35:25.682Z,92376.00
2023-01-23T03:37:59.928Z,92378.50
2023-01-23T03:40:50.468Z,92376.22
2023-01-23T03:43:24.661Z,92375.78
2023-01-23T03:45:56.799Z,92383.53
2023-01-23T03:48:28.880Z,92383.94
2023-01-23T03:51:02.074Z,92373.16
2023-01-23T03:53:37.122Z,92373.22
2023-01-23T03:56:09.598Z,92385.00
2023-01-23T03:58:42.641Z,92377.69
2023-01-23T04:01:14.868Z,92380.97
2023-01-23T04:03:49.587Z,92374.09
2023-01-23T04:06:21.944Z,92365.81
2023-01-23T04:08:54.421Z,92369.00
2023-01-23T04:11:27.283Z,92382.78
2023-01-23T04:14:00.100Z,92373.84
2023-01-23T04:16:32.611Z,92376.94
2023-01-23T04:19:04.803Z,92372.72
2023-01-23T04:21:36.902Z,92380.06
2023-01-23T04:24:09.235Z,92381.47
2023-01-23T04:26:41.293Z,92390.81
2023-01-23T04:29:14.203Z,92390.69
2023-01-23T04:31:46.339Z,92378.59
2023-01-23T04:34:18.790Z,92378.69
2023-01-23T04:36:52.240Z,92375.56
2023-01-23T04:39:24.374Z,92386.25
2023-01-23T04:41:56.522Z,92374.47
2023-01-23T04:44:36.923Z,92371.56
2023-01-23T04:47:38.323Z,92360.66
2023-01-23T04:50:14.435Z,92363.19
2023-01-23T04:52:49.875Z,92357.56
2023-01-23T04:55:23.107Z,92359.09
2023-01-23T04:57:56.037Z,92354.75
2023-01-23T05:00:31.326Z,92358.84
2023-01-23T05:03:05.464Z,92370.31
2023-01-23T05:05:37.816Z,92359.50
2023-01-23T05:08:10.374Z,92369.16
2023-01-23T05:10:43.499Z,92376.22
2023-01-23T05:13:18.279Z,92380.16
2023-01-23T05:15:51.129Z,92384.34
2023-01-23T05:18:23.228Z,92397.03
2023-01-23T05:20:55.340Z,92404.50
2023-01-23T05:23:27.362Z,92402.75
2023-01-23T05:26:00.328Z,92401.94
2023-01-23T05:28:33.278Z,92406.38
2023-01-23T05:31:06.231Z,92416.78
2023-01-23T05:33:45.617Z,92419.88
2023-01-23T05:36:18.696Z,92427.94
2023-01-23T05:38:51.258Z,92422.44
2023-01-23T05:41:25.640Z,92423.50
2023-01-23T05:44:20.838Z,92414.72
2023-01-23T05:47:00.846Z,92409.38
2023-01-23T05:49:32.983Z,92411.91
2023-01-23T05:52:05.556Z,92421.56
2023-01-23T05:54:38.646Z,92412.06
2023-01-23T05:57:11.249Z,92416.97
2023-01-23T06:00:02.128Z,92416.97
2023-01-23T06:02:53.473Z,92427.03
2023-01-23T06:05:34.331Z,92417.72
2023-01-23T06:08:15.854Z,92417.97
2023-01-23T06:10:48.247Z,92424.16
2023-01-23T06:13:21.055Z,92439.97
2023-01-23T06:15:53.339Z,92461.22
2023-01-23T06:18:26.356Z,92455.56
2023-01-23T06:20:59.662Z,92457.72
2023-01-23T06:23:31.975Z,92444.22
2023-01-23T06:26:05.052Z,92433.34
2023-01-23T06:28:39.254Z,92439.03
2023-01-23T06:31:12.586Z,92441.38
2023-01-23T06:33:59.180Z,92437.59
2023-01-23T06:36:35.907Z,92454.22
2023-01-23T06:39:12.086Z,92444.03
2023-01-23T06:41:46.492Z,92460.13
2023-01-23T06:44:24.970Z,92460.97
2023-01-23T06:46:57.060Z,92480.38
2023-01-23T06:49:31.119Z,92482.75
2023-01-23T06:52:03.321Z,92487.19
2023-01-23T06:54:35.592Z,92470.16
2023-01-23T06:57:08.775Z,92482.38
2023-01-23T06:59:41.002Z,92486.28
2023-01-23T07:02:15.265Z,92501.25
2023-01-23T07:04:56.819Z,92484.69
2023-01-23T07:07:28.891Z,92506.75
2023-01-23T07:10:01.453Z,92500.78
2023-01-23T07:12:34.364Z,92497.34
2023-01-23T07:15:07.732Z,92500.19
2023-01-23T07:17:43.999Z,92502.06
2023-01-23T07:20:17.074Z,92494.88
2023-01-23T07:22:54.331Z,92483.16
2023-01-23T07:25:26.620Z,92484.69
2023-01-23T07:27:58.687Z,92493.75
2023-01-23T07:30:30.898Z,92504.84
2023-01-23T07:33:03.324Z,92498.28
2023-01-23T07:35:37.848Z,92494.19
2023-01-23T07:38:09.887Z,92514.34
2023-01-23T07:40:43.793Z,92510.22
2023-01-23T07:43:16.043Z,92506.56
2023-01-23T07:45:48.112Z,92495.44
2023-01-23T07:48:20.127Z,92513.59
2023-01-23T07:50:52.944Z,92519.06
2023-01-23T07:53:25.055Z,92506.63
2023-01-23T07:55:57.158Z,92523.50
2023-01-23T07:58:29.148Z,92519.38
2023-01-23T08:01:07.415Z,92529.25
2023-01-23T08:03:39.623Z,92537.38
2023-01-23T08:06:12.605Z,92543.41
2023-01-23T08:08:47.131Z,92543.97
2023-01-23T08:11:19.289Z,92555.94
2023-01-23T08:13:51.307Z,92547.94
2023-01-23T08:16:23.405Z,92548.22
2023-01-23T08:18:55.492Z,92552.88
2023-01-23T08:21:28.241Z,92564.03
2023-01-23T08:24:00.974Z,92570.31
2023-01-23T08:26:33.655Z,92564.59
2023-01-23T08:29:05.659Z,92554.03
2023-01-23T08:31:38.244Z,92555.84
2023-01-23T08:34:10.355Z,92561.53
2023-01-23T08:36:43.116Z,92552.22
2023-01-23T08:39:15.970Z,92559.22
2023-01-23T08:41:48.063Z,92556.09
2023-01-23T08:44:20.826Z,92560.97
2023-01-23T08:46:52.985Z,92556.06
2023-01-23T08:49:25.201Z,92562.28
2023-01-23T08:51:59.317Z,92557.91
2023-01-23T08:54:31.548Z,92556.38
2023-01-23T08:57:03.671Z,92554.53
2023-01-23T08:59:35.943Z,92564.41
2023-01-23T09:02:10.451Z,92565.97
2023-01-23T09:04:42.641Z,92570.88
2023-01-23T09:07:15.341Z,92569.06
2023-01-23T09:09:47.932Z,92569.59
2023-01-23T09:12:19.971Z,92571.41
2023-01-23T09:14:51.990Z,92576.06
2023-01-23T09:17:24.100Z,92579.72
2023-01-23T09:19:57.462Z,92562.06
2023-01-23T09:22:30.452Z,92584.91
2023-01-23T09:25:02.511Z,92575.56
2023-01-23T09:27:34.535Z,92578.66
2023-01-23T09:30:07.426Z,92584.66
2023-01-23T09:32:39.559Z,92578.41
2023-01-23T09:35:11.709Z,92572.69
2023-01-23T09:37:59.514Z,92576.31
2023-01-23T09:40:34.267Z,92570.63
2023-01-23T09:43:12.012Z,92575.56
2023-01-23T09:45:47.567Z,92584.09
2023-01-23T09:48:22.450Z,92583.81
2023-01-23T09:50:56.040Z,92569.28
2023-01-23T09:53:33.971Z,92573.69
2023-01-23T09:56:12.214Z,92583.53
2023-01-23T09:58:50.166Z,92573.63
2023-01-23T10:01:23.774Z,92572.31
2023-01-23T10:03:56.994Z,92576.44
2023-01-23T10:06:30.592Z,92578.56
2023-01-23T10:09:19.936Z,92563.75
2023-01-23T10:11:58.833Z,92568.41
2023-01-23T10:14:49.553Z,92567.06
2023-01-23T10:17:25.344Z,92570.94
2023-01-23T10:20:13.753Z,92568.47
2023-01-23T10:22:50.986Z,92574.72
2023-01-23T10:25:25.349Z,92574.78
2023-01-23T10:28:00.202Z,92576.06
2023-01-23T10:30:34.778Z,92572.94
2023-01-23T10:33:10.891Z,92571.94
2023-01-23T10:35:46.968Z,92571.41
2023-01-23T10:38:25.541Z,92561.03
2023-01-23T10:41:13.847Z,92556.09
2023-01-23T10:43:46.993Z,92557.16
2023-01-23T10:46:20.616Z,92546.75
2023-01-23T10:48:53.265Z,92545.47
2023-01-23T10:51:43.454Z,92549.91
2023-01-23T10:54:30.711Z,92544.44
2023-01-23T10:57:21.426Z,92551.44
2023-01-23T10:59:56.035Z,92548.84
2023-01-23T11:02:29.544Z,92543.66
2023-01-23T11:05:03.805Z,92545.19
2023-01-23T11:07:37.383Z,92548.06
2023-01-23T11:10:16.447Z,92545.97
2023-01-23T11:12:50.885Z,92543.91
2023-01-23T11:15:24.612Z,92543.41
2023-01-23T11:17:57.446Z,92551.97
2023-01-23T11:20:31.206Z,92556.38
2023-01-23T11:23:04.542Z,92548.06
2023-01-23T11:25:38.201Z,92556.63
2023-01-23T11:28:22.817Z,92550.41
2023-01-23T11:31:11.913Z,92543.66
2023-01-23T11:33:51.847Z,92544.16
2023-01-23T11:36:37.987Z,92546.75
2023-01-23T11:39:16.679Z,92546.22
2023-01-23T11:41:48.990Z,92546.72
2023-01-23T11:44:23.075Z,92543.09
2023-01-23T11:47:01.373Z,92535.88
2023-01-23T11:49:46.472Z,92548.28
2023-01-23T11:52:26.254Z,92541.53
2023-01-23T11:55:12.038Z,92542.84
2023-01-23T11:57:54.597Z,92537.88
2023-01-23T12:00:32.965Z,92535.28
2023-01-23T12:03:24.070Z,92531.63
2023-01-23T12:06:26.332Z,92520.75
2023-01-23T12:09:02.030Z,92520.22
2023-01-23T12:11:36.822Z,92517.66
2023-01-23T12:14:13.791Z,92512.44
2023-01-23T12:16:55.013Z,92513.47
2023-01-23T12:19:33.663Z,92511.66
2023-01-23T12:22:09.727Z,92517.34
2023-01-23T12:24:51.251Z,92525.31
2023-01-23T12:27:28.418Z,92533.59
2023-01-23T12:30:10.741Z,92527.13
2023-01-23T12:32:47.983Z,92523.97
2023-01-23T12:35:26.933Z,92519.63
2023-01-23T12:38:08.123Z,92520.63
2023-01-23T12:40:41.770Z,92516.78
2023-01-23T12:43:16.583Z,92523.25
2023-01-23T12:45:52.908Z,92521.44
2023-01-23T12:48:29.386Z,92527.44
2023-01-23T12:51:05.812Z,92524.28
2023-01-23T12:53:40.735Z,92523.53
2023-01-23T12:56:14.844Z,92533.66
2023-01-23T12:58:51.646Z,92534.72
2023-01-23T13:01:29.076Z,92536.78
2023-01-23T13:04:19.095Z,92541.19
2023-01-23T13:06:58.687Z,92540.19
2023-01-23T13:09:39.689Z,92537.84
2023-01-23T13:12:21.028Z,92537.66
2023-01-23T13:15:13.329Z,92544.41
2023-01-23T13:17:47.705Z,92543.56
2023-01-23T13:20:42.710Z,92539.91
2023-01-23T13:23:22.792Z,92538.59
2023-01-23T13:26:13.616Z,92536.50
2023-01-23T13:28:47.305Z,92537.84
2023-01-23T13:31:27.326Z,92532.47
2023-01-23T13:34:14.663Z,92529.38
2023-01-23T13:36:48.218Z,92539.78
2023-01-23T13:39:22.413Z,92532.50
2023-01-23T13:42:13.335Z,92528.38
2023-01-23T13:45:04.020Z,92531.47
2023-01-23T14:25:48.000Z,92535.28
2023-01-23T14:28:20.199Z,92553.97
2023-01-23T14:30:53.167Z,92549.56
2023-01-23T14:33:26.832Z,92557.09
2023-01-23T14:35:59.026Z,92561.47
2023-01-23T14:38:32.924Z,92563.81
2023-01-23T14:41:05.934Z,92565.06
2023-01-23T14:43:39.898Z,92565.50
2023-01-23T14:46:14.930Z,92574.28
2023-01-23T14:48:50.994Z,92567.41
2023-01-23T14:51:24.162Z,92571.84
2023-01-23T14:53:57.275Z,92578.97
2023-01-23T14:56:30.928Z,92584.47
2023-01-23T14:59:04.368Z,92578.00
2023-01-23T15:01:36.515Z,92594.16
2023-01-23T15:04:20.193Z,92592.06
2023-01-23T15:06:53.402Z,92595.53
2023-01-23T15:09:29.225Z,92595.00
2023-01-23T15:12:05.961Z,92598.63
2023-01-23T15:14:38.831Z,92602.28
2023-01-23T15:17:13.524Z,92605.38
2023-01-23T15:19:50.120Z,92602.50
2023-01-23T15:22:25.304Z,92614.94
2023-01-23T15:24:57.342Z,92619.56
2023-01-23T15:27:31.433Z,92620.03
2023-01-23T15:30:22.028Z,92632.41
2023-01-23T15:32:54.442Z,92631.13
2023-01-23T15:35:27.135Z,92636.75
2023-01-23T15:38:04.114Z,92638.50
2023-01-23T15:40:37.495Z,92634.84
2023-01-23T15:43:11.060Z,92644.84
2023-01-23T15:45:43.091Z,92640.44
2023-01-23T15:48:15.153Z,92648.25
2023-01-23T15:50:47.853Z,92651.66
2023-01-23T15:53:20.308Z,92651.09
2023-01-23T15:55:52.416Z,92650.53
2023-01-23T15:58:24.582Z,92650.28
2023-01-23T16:00:56.629Z,92652.31
2023-01-23T16:03:28.732Z,92646.09
2023-01-23T16:06:01.483Z,92647.56
2023-01-23T16:08:33.703Z,92651.00
2023-01-23T16:11:05.715Z,92648.34
2023-01-23T16:13:37.840Z,92640.84
2023-01-23T16:16:12.859Z,92638.41
2023-01-23T16:18:44.949Z,92639.13
2023-01-23T16:21:19.204Z,92636.78
2023-01-23T16:23:53.133Z,92639.31
2023-01-23T16:26:27.412Z,92634.09
2023-01-23T16:29:13.209Z,92635.09
2023-01-23T16:31:45.957Z,92633.16
2023-01-23T16:34:18.229Z,92642.94
2023-01-23T16:36:52.215Z,92641.38
2023-01-23T16:39:26.237Z,92648.91
2023-01-23T16:41:58.411Z,92649.09
2023-01-23T16:44:30.549Z,92646.59
2023-01-23T16:47:02.607Z,92653.75
2023-01-23T16:49:46.803Z,92648.59
2023-01-23T16:52:25.264Z,92654.47
2023-01-23T16:54:57.935Z,92646.72
2023-01-23T16:57:30.425Z,92642.47
2023-01-23T17:00:04.036Z,92633.91
2023-01-23T17:02:36.218Z,92638.44
2023-01-23T17:05:08.687Z,92651.03
2023-01-23T17:07:41.417Z,92643.31
2023-01-23T17:10:14.715Z,92639.38
2023-01-23T17:12:47.199Z,92641.38
2023-01-23T17:15:21.352Z,92643.97
2023-01-23T17:17:55.707Z,92659.94
2023-01-23T17:20:28.191Z,92661.66
2023-01-23T17:23:01.522Z,92663.16
2023-01-23T17:25:34.896Z,92664.63
2023-01-23T17:28:13.122Z,92661.66
2023-01-23T17:30:47.463Z,92663.16
2023-01-23T17:33:21.008Z,92670.03
2023-01-23T17:35:53.301Z,92674.19
2023-01-23T17:38:28.333Z,92688.94
2023-01-23T17:41:00.876Z,92688.53
2023-01-23T17:43:33.087Z,92693.28
2023-01-23T17:46:05.215Z,92698.03
2023-01-23T17:48:39.665Z,92701.47
2023-01-23T17:51:15.352Z,92695.28
2023-01-23T17:53:48.484Z,92696.25
2023-01-23T17:56:20.854Z,92702.22
2023-01-23T17:58:52.905Z,92704.31
2023-01-23T18:01:25.489Z,92706.56
2023-01-23T18:03:57.745Z,92705.53
2023-01-23T18:06:30.498Z,92707.16
2023-01-23T18:09:03.379Z,92706.47
2023-01-23T18:11:36.935Z,92701.84
2023-01-23T18:14:15.278Z,92708.47
2023-01-23T18:16:49.435Z,92709.78
2023-01-23T18:19:22.920Z,92704.34
2023-01-23T18:21:55.620Z,92701.50
2023-01-23T18:24:29.702Z,92695.47
2023-01-23T18:27:12.266Z,92698.47
2023-01-23T18:29:51.969Z,92703.41
2023-01-23T18:32:39.516Z,92699.78
2023-01-23T18:35:21.447Z,92700.09
2023-01-23T18:37:59.146Z,92702.97
2023-01-23T18:40:36.743Z,92706.88
2023-01-23T18:43:14.494Z,92702.19
2023-01-23T18:45:47.870Z,92696.00
2023-01-23T18:48:25.412Z,92708.47
2023-01-23T18:51:08.101Z,92701.16
2023-01-23T18:53:46.501Z,92693.63
2023-01-23T18:56:24.351Z,92693.44
2023-01-23T18:59:11.811Z,92694.75
2023-01-23T19:01:51.524Z,92695.84
2023-01-23T19:04:30.613Z,92703.22
2023-01-23T19:07:03.805Z,92705.09
2023-01-23T19:09:37.539Z,92702.09
2023-01-23T19:12:25.334Z,92707.72
2023-01-23T19:15:04.855Z,92709.53
2023-01-23T19:17:41.689Z,92710.31
2023-01-23T19:20:21.658Z,92715.53
2023-01-23T19:23:00.117Z,92714.78
2023-01-23T19:25:32.644Z,92720.75
2023-01-23T19:28:06.617Z,92717.94
2023-01-23T19:30:39.336Z,92725.75
2023-01-23T19:33:15.334Z,92730.06
2023-01-23T19:35:49.364Z,92723.88
2023-01-23T19:38:23.466Z,92725.94
2023-01-23T19:40:57.416Z,92734.66
2023-01-23T19:43:32.602Z,92742.22
2023-01-23T19:46:06.382Z,92737.53
2023-01-23T19:48:40.277Z,92735.91
2023-01-23T19:51:15.367Z,92737.78
2023-01-23T19:53:47.979Z,92725.00
2023-01-23T19:56:20.733Z,92730.69
2023-01-23T19:58:53.830Z,92735.72
2023-01-23T20:01:29.546Z,92728.13
2023-01-23T20:04:03.677Z,92726.75
2023-01-23T20:06:38.806Z,92728.59
2023-01-23T20:09:13.688Z,92730.13
2023-01-23T20:11:46.341Z,92734.91
2023-01-23T20:14:19.480Z,92732.56
2023-01-23T20:16:52.454Z,92734.91
2023-01-23T20:19:25.373Z,92740.03
2023-01-23T20:21:57.711Z,92740.53
2023-01-23T20:24:29.724Z,92745.91
2023-01-23T20:27:01.985Z,92754.91
2023-01-23T20:29:34.751Z,92757.56
2023-01-23T20:32:07.118Z,92761.75
2023-01-23T20:34:39.194Z,92770.03
2023-01-23T20:37:11.304Z,92772.91
2023-01-23T20:39:43.359Z,92776.50
2023-01-23T20:42:15.769Z,92786.63
2023-01-23T20:44:48.720Z,92789.28
2023-01-23T20:47:20.790Z,92786.75
2023-01-23T20:49:52.878Z,92786.28
2023-01-23T20:52:43.148Z,92791.22
2023-01-23T20:55:15.398Z,92803.41
2023-01-23T20:58:05.515Z,92796.38
2023-01-23T21:00:38.465Z,92803.88
2023-01-23T21:03:10.825Z,92804.13
2023-01-23T21:05:42.912Z,92804.13
2023-01-23T21:08:14.992Z,92809.06
2023-01-23T21:10:47.049Z,92809.91
2023-01-23T21:13:19.644Z,92799.97
2023-01-23T21:15:59.187Z,92808.75
2023-01-23T21:18:31.463Z,92798.34
2023-01-23T21:21:04.481Z,92802.00
2023-01-23T21:23:36.576Z,92790.19
2023-01-23T21:26:08.710Z,92786.88
2023-01-23T21:28:40.784Z,92790.28
2023-01-23T21:31:14.614Z,92788.97
2023-01-23T21:33:47.015Z,92791.06
2023-01-23T21:36:20.130Z,92799.75
2023-01-23T21:39:10.188Z,92788.09
2023-01-23T21:41:42.872Z,92781.84
2023-01-23T21:44:14.979Z,92781.84
2023-01-23T21:46:48.466Z,92784.16
2023-01-23T21:49:20.564Z,92780.50
2023-01-23T21:51:52.576Z,92776.50
2023-01-23T21:54:24.987Z,92775.28
2023-01-23T21:56:56.996Z,92771.13
2023-01-23T21:59:29.327Z,92771.59
2023-01-23T22:02:02.121Z,92764.06
2023-01-23T22:04:34.685Z,92759.00
2023-01-23T22:07:06.752Z,92752.28
2023-01-23T22:09:38.822Z,92744.16
2023-01-23T22:12:10.824Z,92748.69
2023-01-23T22:14:42.876Z,92753.28
2023-01-23T22:17:15.557Z,92747.88
2023-01-23T22:19:47.657Z,92748.69
2023-01-23T22:22:20.021Z,92748.81
2023-01-23T22:24:52.098Z,92755.59
2023-01-23T22:27:24.240Z,92752.31
2023-01-23T22:29:56.329Z,92744.66
2023-01-23T22:32:29.011Z,92754.19
2023-01-23T22:35:01.554Z,92747.91
2023-01-23T22:37:33.563Z,92739.31
2023-01-23T22:40:06.553Z,92749.72
2023-01-23T22:42:38.694Z,92748.63
2023-01-23T22:45:11.703Z,92752.41
2023-01-23T22:47:44.603Z,92757.28
2023-01-23T22:50:17.144Z,92756.63
2023-01-23T22:52:49.165Z,92762.31
2023-01-23T22:55:21.548Z,92760.59
2023-01-23T22:57:53.799Z,92759.84
2023-01-23T23:00:25.885Z,92764.44
2023-01-23T23:02:58.562Z,92769.84
2023-01-23T23:05:30.872Z,92774.06
2023-01-23T23:08:03.100Z,92771.25
2023-01-23T23:10:35.437Z,92775.56
2023-01-23T23:13:07.701Z,92776.88
2023-01-23T23:15:39.722Z,92783.31
2023-01-23T23:18:12.561Z,92786.28
2023-01-23T23:20:44.647Z,92778.31
2023-01-23T23:23:18.537Z,92781.44
2023-01-23T23:25:52.484Z,92789.34
2023-01-23T23:28:25.700Z,92782.31
2023-01-23T23:30:57.999Z,92781.44
2023-01-23T23:33:30.774Z,92782.69
2023-01-23T23:36:03.149Z,92778.06
2023-01-23T23:38:35.478Z,92773.00
2023-01-23T23:41:08.929Z,92774.88
2023-01-23T23:43:41.338Z,92771.47
2023-01-23T23:46:14.055Z,92773.03
2023-01-23T23:48:47.420Z,92771.06
2023-01-23T23:51:19.709Z,92778.94
2023-01-23T23:53:52.135Z,92761.69
2023-01-23T23:56:25.678Z,92764.50
2023-01-23T23:58:58.020Z,92766.28
